sensor_id;sensor_type;location;lat;lon;timestamp;pressure;altitude;pressure_sealevel;temperature;humidity
57086;BME280;42964;42.910;23.792;2024-01-30T00:01:37;99877.69;;;0.54;65.04
57086;BME280;42964;42.910;23.792;2024-01-30T00:06:36;99844.34;;;0.40;64.84
57086;BME280;42964;42.910;23.792;2024-01-30T00:11:35;99865.03;;;0.32;64.80
57086;BME280;42964;42.910;23.792;2024-01-30T00:16:34;99856.16;;;0.38;65.03
57086;BME280;42964;42.910;23.792;2024-01-30T00:21:33;99852.47;;;0.35;64.81
57086;BME280;42964;42.910;23.792;2024-01-30T00:26:32;99841.25;;;0.33;64.84
57086;BME280;42964;42.910;23.792;2024-01-30T00:31:31;99867.47;;;0.54;64.63
57086;BME280;42964;42.910;23.792;2024-01-30T00:36:30;99854.03;;;0.44;64.64
57086;BME280;42964;42.910;23.792;2024-01-30T00:41:29;99847.50;;;0.48;64.68
57086;BME280;42964;42.910;23.792;2024-01-30T00:46:28;99811.16;;;0.29;64.54
57086;BME280;42964;42.910;23.792;2024-01-30T00:51:27;99781.53;;;0.19;64.50
57086;BME280;42964;42.910;23.792;2024-01-30T00:56:28;99854.34;;;0.61;64.50
57086;BME280;42964;42.910;23.792;2024-01-30T01:01:27;99855.69;;;0.79;64.08
57086;BME280;42964;42.910;23.792;2024-01-30T01:06:26;99872.56;;;0.77;63.88
57086;BME280;42964;42.910;23.792;2024-01-30T01:11:25;99841.38;;;0.69;63.73
57086;BME280;42964;42.910;23.792;2024-01-30T01:16:24;99807.03;;;0.54;63.69
57086;BME280;42964;42.910;23.792;2024-01-30T01:21:23;99864.22;;;0.92;63.43
57086;BME280;42964;42.910;23.792;2024-01-30T01:26:22;99767.41;;;0.36;63.26
57086;BME280;42964;42.910;23.792;2024-01-30T01:31:21;99846.56;;;0.95;63.17
57086;BME280;42964;42.910;23.792;2024-01-30T01:36:24;99848.81;;;0.78;63.00
57086;BME280;42964;42.910;23.792;2024-01-30T01:41:23;99860.66;;;0.89;63.13
57086;BME280;42964;42.910;23.792;2024-01-30T01:46:22;99837.66;;;0.78;62.98
57086;BME280;42964;42.910;23.792;2024-01-30T01:51:22;99800.16;;;0.53;62.87
57086;BME280;42964;42.910;23.792;2024-01-30T01:56:23;99745.13;;;0.10;63.04
57086;BME280;42964;42.910;23.792;2024-01-30T02:01:23;99865.25;;;0.70;63.55
57086;BME280;42964;42.910;23.792;2024-01-30T02:06:23;99850.81;;;0.35;64.37
57086;BME280;42964;42.910;23.792;2024-01-30T02:11:23;99859.03;;;0.55;64.44
57086;BME280;42964;42.910;23.792;2024-01-30T02:16:22;99623.50;;;-0.96;65.23
57086;BME280;42964;42.910;23.792;2024-01-30T02:21:21;99854.53;;;0.05;65.51
57086;BME280;42964;42.910;23.792;2024-01-30T02:26:20;99774.16;;;-0.35;66.47
57086;BME280;42964;42.910;23.792;2024-01-30T02:31:19;99790.97;;;-0.04;66.27
57086;BME280;42964;42.910;23.792;2024-01-30T02:36:18;99876.94;;;0.55;66.12
57086;BME280;42964;42.910;23.792;2024-01-30T02:41:17;99868.34;;;0.66;65.76
57086;BME280;42964;42.910;23.792;2024-01-30T02:46:16;99829.28;;;0.55;65.79
57086;BME280;42964;42.910;23.792;2024-01-30T02:51:16;99763.56;;;0.29;65.27
57086;BME280;42964;42.910;23.792;2024-01-30T02:56:15;99854.34;;;0.61;66.26
57086;BME280;42964;42.910;23.792;2024-01-30T03:01:14;99844.13;;;0.61;65.87
57086;BME280;42964;42.910;23.792;2024-01-30T03:06:13;99858.72;;;0.62;66.07
57086;BME280;42964;42.910;23.792;2024-01-30T03:11:16;99866.47;;;0.63;66.31
57086;BME280;42964;42.910;23.792;2024-01-30T03:16:15;99825.84;;;0.43;66.16
57086;BME280;42964;42.910;23.792;2024-01-30T03:21:14;99868.69;;;0.71;66.25
57086;BME280;42964;42.910;23.792;2024-01-30T03:26:13;99861.94;;;0.59;66.17
57086;BME280;42964;42.910;23.792;2024-01-30T03:31:15;99856.56;;;0.44;66.55
57086;BME280;42964;42.910;23.792;2024-01-30T03:36:15;99852.81;;;0.39;66.59
57086;BME280;42964;42.910;23.792;2024-01-30T03:41:14;99847.03;;;0.42;66.10
57086;BME280;42964;42.910;23.792;2024-01-30T03:46:13;99795.50;;;0.12;65.77
57086;BME280;42964;42.910;23.792;2024-01-30T03:51:12;99834.59;;;0.35;66.06
57086;BME280;42964;42.910;23.792;2024-01-30T03:56:13;99833.72;;;0.22;66.61
57086;BME280;42964;42.910;23.792;2024-01-30T04:01:13;99808.06;;;0.21;66.28
57086;BME280;42964;42.910;23.792;2024-01-30T04:06:13;99827.25;;;0.27;66.48
57086;BME280;42964;42.910;23.792;2024-01-30T04:11:12;99849.72;;;0.43;66.43
57086;BME280;42964;42.910;23.792;2024-01-30T04:16:19;99760.69;;;0.01;66.01
57086;BME280;42964;42.910;23.792;2024-01-30T04:21:21;99859.03;;;0.55;66.16
57086;BME280;42964;42.910;23.792;2024-01-30T04:26:20;99815.28;;;0.15;66.17
57086;BME280;42964;42.910;23.792;2024-01-30T04:31:19;99847.22;;;0.10;66.91
57086;BME280;42964;42.910;23.792;2024-01-30T04:36:18;99852.09;;;0.07;68.19
57086;BME280;42964;42.910;23.792;2024-01-30T04:41:17;99874.66;;;0.24;68.22
57086;BME280;42964;42.910;23.792;2024-01-30T04:46:16;99875.97;;;0.19;68.69
57086;BME280;42964;42.910;23.792;2024-01-30T04:51:15;99874.63;;;0.12;68.38
57086;BME280;42964;42.910;23.792;2024-01-30T04:56:14;99815.31;;;-0.31;68.56
57086;BME280;42964;42.910;23.792;2024-01-30T05:01:16;99892.31;;;0.33;68.35
57086;BME280;42964;42.910;23.792;2024-01-30T05:06:28;99797.94;;;-0.13;68.57
57086;BME280;42964;42.910;23.792;2024-01-30T05:11:27;99841.53;;;-0.10;69.04
57086;BME280;42964;42.910;23.792;2024-01-30T05:16:26;99884.13;;;0.25;68.79
57086;BME280;42964;42.910;23.792;2024-01-30T05:21:25;99876.56;;;0.15;68.95
57086;BME280;42964;42.910;23.792;2024-01-30T05:26:24;99874.44;;;0.33;68.86
57086;BME280;42964;42.910;23.792;2024-01-30T05:31:23;99880.78;;;0.50;68.45
57086;BME280;42964;42.910;23.792;2024-01-30T05:36:22;99819.47;;;0.14;68.17
57086;BME280;42964;42.910;23.792;2024-01-30T05:41:21;99877.25;;;0.59;68.21
57086;BME280;42964;42.910;23.792;2024-01-30T05:46:20;99822.38;;;0.42;68.03
57086;BME280;42964;42.910;23.792;2024-01-30T05:51:19;99814.84;;;0.32;67.52
57086;BME280;42964;42.910;23.792;2024-01-30T05:56:18;99839.50;;;0.43;67.75
57086;BME280;42964;42.910;23.792;2024-01-30T06:01:17;99890.25;;;0.62;67.67
57086;BME280;42964;42.910;23.792;2024-01-30T06:06:15;99895.22;;;0.73;67.15
57086;BME280;42964;42.910;23.792;2024-01-30T06:11:14;99876.34;;;0.59;66.53
57086;BME280;42964;42.910;23.792;2024-01-30T06:16:13;99877.56;;;0.40;66.97
57086;BME280;42964;42.910;23.792;2024-01-30T06:21:13;99845.75;;;-0.10;68.11
57086;BME280;42964;42.910;23.792;2024-01-30T06:26:12;99795.03;;;-0.63;69.05
57086;BME280;42964;42.910;23.792;2024-01-30T06:31:11;99847.97;;;-0.15;68.51
57086;BME280;42964;42.910;23.792;2024-01-30T06:36:10;99894.50;;;0.04;69.06
57086;BME280;42964;42.910;23.792;2024-01-30T06:41:09;99869.19;;;-0.38;70.43
57086;BME280;42964;42.910;23.792;2024-01-30T06:46:08;99703.50;;;-1.28;70.24
57086;BME280;42964;42.910;23.792;2024-01-30T06:51:07;99924.00;;;-0.11;70.49
57086;BME280;42964;42.910;23.792;2024-01-30T06:56:06;99862.47;;;-0.26;70.17
57086;BME280;42964;42.910;23.792;2024-01-30T07:01:06;99902.31;;;-0.16;70.86
57086;BME280;42964;42.910;23.792;2024-01-30T07:06:05;99844.53;;;-0.49;70.90
57086;BME280;42964;42.910;23.792;2024-01-30T07:11:07;99914.75;;;-0.09;70.84
57086;BME280;42964;42.910;23.792;2024-01-30T07:16:06;99882.63;;;0.05;70.04
57086;BME280;42964;42.910;23.792;2024-01-30T07:21:05;99875.25;;;0.43;68.21
57086;BME280;42964;42.910;23.792;2024-01-30T07:26:05;99926.91;;;0.63;67.02
57086;BME280;42964;42.910;23.792;2024-01-30T07:31:05;99883.47;;;0.39;66.64
57086;BME280;42964;42.910;23.792;2024-01-30T07:36:05;99903.91;;;0.75;66.03
57086;BME280;42964;42.910;23.792;2024-01-30T07:41:04;99924.78;;;0.93;66.24
57086;BME280;42964;42.910;23.792;2024-01-30T07:46:03;99876.44;;;0.96;65.44
57086;BME280;42964;42.910;23.792;2024-01-30T07:51:02;99919.59;;;1.40;63.78
57086;BME280;42964;42.910;23.792;2024-01-30T07:56:02;99904.69;;;1.46;62.89
57086;BME280;42964;42.910;23.792;2024-01-30T08:01:01;99894.41;;;1.58;62.67
57086;BME280;42964;42.910;23.792;2024-01-30T08:06:01;99867.81;;;1.81;60.09
57086;BME280;42964;42.910;23.792;2024-01-30T08:11:00;99827.56;;;1.53;59.33
57086;BME280;42964;42.910;23.792;2024-01-30T08:15:59;99909.28;;;1.63;59.39
57086;BME280;42964;42.910;23.792;2024-01-30T08:20:58;99865.34;;;1.57;58.71
57086;BME280;42964;42.910;23.792;2024-01-30T08:25:57;99926.72;;;1.69;58.26
57086;BME280;42964;42.910;23.792;2024-01-30T08:30:56;99853.97;;;1.65;56.99
57086;BME280;42964;42.910;23.792;2024-01-30T08:35:56;99911.25;;;1.92;56.46
57086;BME280;42964;42.910;23.792;2024-01-30T08:40:55;99919.25;;;2.22;55.73
57086;BME280;42964;42.910;23.792;2024-01-30T08:45:55;99891.06;;;2.22;54.90
57086;BME280;42964;42.910;23.792;2024-01-30T08:50:56;99904.63;;;2.08;54.00
57086;BME280;42964;42.910;23.792;2024-01-30T08:55:55;99919.88;;;2.06;50.78
57086;BME280;42964;42.910;23.792;2024-01-30T09:00:54;99930.09;;;2.31;51.03
57086;BME280;42964;42.910;23.792;2024-01-30T09:05:53;99894.88;;;2.02;49.67
57086;BME280;42964;42.910;23.792;2024-01-30T09:10:52;99870.41;;;1.94;49.49
57086;BME280;42964;42.910;23.792;2024-01-30T09:15:52;99906.66;;;2.38;49.28
57086;BME280;42964;42.910;23.792;2024-01-30T09:20:51;99905.09;;;2.41;48.33
57086;BME280;42964;42.910;23.792;2024-01-30T09:25:50;99845.91;;;1.98;48.42
57086;BME280;42964;42.910;23.792;2024-01-30T09:30:49;99853.28;;;1.93;47.87
57086;BME280;42964;42.910;23.792;2024-01-30T09:35:48;99870.47;;;1.82;47.70
57086;BME280;42964;42.910;23.792;2024-01-30T09:40:53;99806.66;;;1.72;46.99
57086;BME280;42964;42.910;23.792;2024-01-30T09:45:54;99874.94;;;2.23;45.97
57086;BME280;42964;42.910;23.792;2024-01-30T09:50:54;99858.47;;;2.20;45.28
57086;BME280;42964;42.910;23.792;2024-01-30T09:55:53;99889.63;;;2.52;45.46
57086;BME280;42964;42.910;23.792;2024-01-30T10:00:52;99848.22;;;2.33;46.07
57086;BME280;42964;42.910;23.792;2024-01-30T10:05:53;99919.69;;;2.55;44.70
57086;BME280;42964;42.910;23.792;2024-01-30T10:10:54;99869.31;;;2.55;44.62
57086;BME280;42964;42.910;23.792;2024-01-30T10:15:53;99884.50;;;2.79;44.41
57086;BME280;42964;42.910;23.792;2024-01-30T10:20:52;99851.69;;;2.60;44.77
57086;BME280;42964;42.910;23.792;2024-01-30T10:25:51;99879.19;;;2.49;44.48
57086;BME280;42964;42.910;23.792;2024-01-30T10:30:58;99873.84;;;2.59;45.07
57086;BME280;42964;42.910;23.792;2024-01-30T10:36:02;99752.53;;;2.06;45.57
57086;BME280;42964;42.910;23.792;2024-01-30T10:41:02;99865.38;;;2.74;44.97
57086;BME280;42964;42.910;23.792;2024-01-30T10:46:15;99867.56;;;2.54;45.20
57086;BME280;42964;42.910;23.792;2024-01-30T10:51:16;99849.88;;;2.32;45.24
57086;BME280;42964;42.910;23.792;2024-01-30T10:56:18;99835.13;;;2.28;45.11
57086;BME280;42964;42.910;23.792;2024-01-30T11:01:20;99827.81;;;2.34;45.38
57086;BME280;42964;42.910;23.792;2024-01-30T11:06:27;99761.41;;;1.84;45.53
57086;BME280;42964;42.910;23.792;2024-01-30T11:11:26;99840.34;;;2.56;45.43
57086;BME280;42964;42.910;23.792;2024-01-30T11:16:31;99842.41;;;2.49;45.71
57086;BME280;42964;42.910;23.792;2024-01-30T11:21:30;99819.44;;;2.50;45.99
57086;BME280;42964;42.910;23.792;2024-01-30T11:26:31;99849.81;;;2.71;45.41
57086;BME280;42964;42.910;23.792;2024-01-30T11:31:29;99820.31;;;2.51;45.86
57086;BME280;42964;42.910;23.792;2024-01-30T11:36:29;99817.38;;;2.71;46.60
57086;BME280;42964;42.910;23.792;2024-01-30T11:41:31;99731.16;;;2.45;46.58
57086;BME280;42964;42.910;23.792;2024-01-30T11:46:30;99821.47;;;2.96;46.15
57086;BME280;42964;42.910;23.792;2024-01-30T11:51:30;99803.66;;;2.84;46.75
57086;BME280;42964;42.910;23.792;2024-01-30T11:56:30;99827.84;;;3.02;45.53
57086;BME280;42964;42.910;23.792;2024-01-30T12:01:29;99765.94;;;2.96;46.22
57086;BME280;42964;42.910;23.792;2024-01-30T12:06:28;99789.44;;;3.17;47.11
57086;BME280;42964;42.910;23.792;2024-01-30T12:11:27;99719.59;;;2.93;46.51
57086;BME280;42964;42.910;23.792;2024-01-30T12:16:28;99777.22;;;3.41;45.79
57086;BME280;42964;42.910;23.792;2024-01-30T12:21:28;99766.78;;;3.38;45.55
57086;BME280;42964;42.910;23.792;2024-01-30T12:26:27;99794.13;;;3.53;45.51
57086;BME280;42964;42.910;23.792;2024-01-30T12:31:27;99761.97;;;3.44;45.59
57086;BME280;42964;42.910;23.792;2024-01-30T12:36:28;99777.03;;;3.38;45.89
57086;BME280;42964;42.910;23.792;2024-01-30T12:41:29;99784.94;;;3.28;45.96
57086;BME280;42964;42.910;23.792;2024-01-30T12:46:28;99748.16;;;2.99;46.98
57086;BME280;42964;42.910;23.792;2024-01-30T12:51:28;99778.63;;;3.36;45.91
57086;BME280;42964;42.910;23.792;2024-01-30T12:56:27;99774.09;;;3.32;45.92
57086;BME280;42964;42.910;23.792;2024-01-30T13:01:26;99689.72;;;2.94;46.24
57086;BME280;42964;42.910;23.792;2024-01-30T13:06:25;99747.25;;;3.12;45.78
57086;BME280;42964;42.910;23.792;2024-01-30T13:11:24;99758.72;;;3.47;45.38
57086;BME280;42964;42.910;23.792;2024-01-30T13:16:24;99759.06;;;3.38;44.67
57086;BME280;42964;42.910;23.792;2024-01-30T13:21:23;99748.03;;;3.11;45.04
57086;BME280;42964;42.910;23.792;2024-01-30T13:26:22;99697.44;;;2.80;45.04
57086;BME280;42964;42.910;23.792;2024-01-30T13:31:21;99768.25;;;2.78;45.39
57086;BME280;42964;42.910;23.792;2024-01-30T13:36:21;99762.09;;;2.48;45.51
57086;BME280;42964;42.910;23.792;2024-01-30T13:41:20;99711.56;;;2.06;45.25
57086;BME280;42964;42.910;23.792;2024-01-30T13:46:21;99557.44;;;1.17;45.49
57086;BME280;42964;42.910;23.792;2024-01-30T13:51:20;99736.28;;;2.45;45.27
57086;BME280;42964;42.910;23.792;2024-01-30T13:56:20;99742.88;;;2.83;44.83
57086;BME280;42964;42.910;23.792;2024-01-30T14:01:19;99740.50;;;2.86;44.88
57086;BME280;42964;42.910;23.792;2024-01-30T14:06:18;99717.88;;;2.24;45.31
57086;BME280;42964;42.910;23.792;2024-01-30T14:11:17;99707.72;;;2.12;45.57
57086;BME280;42964;42.910;23.792;2024-01-30T14:16:16;99701.13;;;1.89;45.70
57086;BME280;42964;42.910;23.792;2024-01-30T14:21:15;99734.50;;;2.04;45.79
57086;BME280;42964;42.910;23.792;2024-01-30T14:26:14;99746.31;;;1.75;46.77
57086;BME280;42964;42.910;23.792;2024-01-30T14:31:13;99716.59;;;1.78;47.08
57086;BME280;42964;42.910;23.792;2024-01-30T14:36:12;99704.97;;;1.69;46.24
57086;BME280;42964;42.910;23.792;2024-01-30T14:41:12;99736.28;;;1.79;46.80
57086;BME280;42964;42.910;23.792;2024-01-30T14:46:11;99673.41;;;1.30;46.95
57086;BME280;42964;42.910;23.792;2024-01-30T14:51:10;99687.16;;;1.19;47.11
57086;BME280;42964;42.910;23.792;2024-01-30T14:56:09;99739.00;;;1.68;47.15
57086;BME280;42964;42.910;23.792;2024-01-30T15:01:08;99737.25;;;1.67;47.59
57086;BME280;42964;42.910;23.792;2024-01-30T15:06:08;99728.34;;;1.49;47.36
57086;BME280;42964;42.910;23.792;2024-01-30T15:11:07;99739.78;;;1.54;47.50
57086;BME280;42964;42.910;23.792;2024-01-30T15:16:06;99744.47;;;1.48;48.22
57086;BME280;42964;42.910;23.792;2024-01-30T15:21:06;99699.88;;;1.06;48.61
57086;BME280;42964;42.910;23.792;2024-01-30T15:26:05;99710.72;;;1.02;48.53
57086;BME280;42964;42.910;23.792;2024-01-30T15:31:05;99744.22;;;1.18;48.71
57086;BME280;42964;42.910;23.792;2024-01-30T15:36:04;99750.69;;;1.13;49.24
57086;BME280;42964;42.910;23.792;2024-01-30T15:41:03;99725.88;;;0.87;49.24
57086;BME280;42964;42.910;23.792;2024-01-30T15:46:03;99725.91;;;0.75;49.53
57086;BME280;42964;42.910;23.792;2024-01-30T15:51:02;99741.00;;;0.84;49.61
57086;BME280;42964;42.910;23.792;2024-01-30T15:56:01;99667.59;;;0.33;50.00
57086;BME280;42964;42.910;23.792;2024-01-30T16:01:00;99733.06;;;0.56;50.36
57086;BME280;42964;42.910;23.792;2024-01-30T16:05:59;99667.66;;;0.09;49.99
57086;BME280;42964;42.910;23.792;2024-01-30T16:10:58;99756.84;;;0.55;50.48
57086;BME280;42964;42.910;23.792;2024-01-30T16:15:57;99723.25;;;0.25;50.61
57086;BME280;42964;42.910;23.792;2024-01-30T16:20:57;99669.44;;;-0.13;51.01
57086;BME280;42964;42.910;23.792;2024-01-30T16:25:56;99734.69;;;0.07;51.27
57086;BME280;42964;42.910;23.792;2024-01-30T16:30:56;99750.56;;;0.14;51.29
57086;BME280;42964;42.910;23.792;2024-01-30T16:35:56;99673.88;;;-0.46;52.60
57086;BME280;42964;42.910;23.792;2024-01-30T16:40:55;99686.53;;;-0.48;53.32
57086;BME280;42964;42.910;23.792;2024-01-30T16:45:54;99735.13;;;-0.23;54.07
57086;BME280;42964;42.910;23.792;2024-01-30T16:50:53;99757.50;;;-0.30;53.71
57086;BME280;42964;42.910;23.792;2024-01-30T16:55:52;99769.50;;;-0.29;54.58
57086;BME280;42964;42.910;23.792;2024-01-30T17:00:51;99688.69;;;-0.88;54.60
57086;BME280;42964;42.910;23.792;2024-01-30T17:05:50;99774.34;;;-0.44;54.82
57086;BME280;42964;42.910;23.792;2024-01-30T17:10:53;99763.00;;;-0.60;54.42
57086;BME280;42964;42.910;23.792;2024-01-30T17:15:52;99650.19;;;-1.36;55.10
57086;BME280;42964;42.910;23.792;2024-01-30T17:20:51;99766.59;;;-0.80;55.53
57086;BME280;42964;42.910;23.792;2024-01-30T17:25:50;99782.13;;;-0.76;55.73
57086;BME280;42964;42.910;23.792;2024-01-30T17:30:48;99694.25;;;-1.37;56.00
57086;BME280;42964;42.910;23.792;2024-01-30T17:35:47;99793.81;;;-0.90;55.81
57086;BME280;42964;42.910;23.792;2024-01-30T17:40:46;99793.22;;;-0.98;56.65
57086;BME280;42964;42.910;23.792;2024-01-30T17:45:45;99794.00;;;-0.99;55.96
57086;BME280;42964;42.910;23.792;2024-01-30T17:50:44;99781.06;;;-1.12;57.23
57086;BME280;42964;42.910;23.792;2024-01-30T17:55:43;99789.59;;;-1.12;56.72
57086;BME280;42964;42.910;23.792;2024-01-30T18:00:43;99761.81;;;-1.31;57.76
57086;BME280;42964;42.910;23.792;2024-01-30T18:05:42;99748.13;;;-1.43;57.44
57086;BME280;42964;42.910;23.792;2024-01-30T18:10:41;99782.19;;;-1.31;57.76
57086;BME280;42964;42.910;23.792;2024-01-30T18:15:40;99698.16;;;-1.85;58.11
57086;BME280;42964;42.910;23.792;2024-01-30T18:20:39;99753.28;;;-1.53;58.41
57086;BME280;42964;42.910;23.792;2024-01-30T18:25:38;99741.28;;;-1.76;58.25
57086;BME280;42964;42.910;23.792;2024-01-30T18:30:37;99682.00;;;-2.18;58.42
57086;BME280;42964;42.910;23.792;2024-01-30T18:35:36;99767.84;;;-1.73;59.00
57086;BME280;42964;42.910;23.792;2024-01-30T18:40:35;99778.16;;;-1.71;59.48
57086;BME280;42964;42.910;23.792;2024-01-30T18:45:34;99773.63;;;-1.86;60.66
57086;BME280;42964;42.910;23.792;2024-01-30T18:50:33;99764.75;;;-1.91;60.93
57086;BME280;42964;42.910;23.792;2024-01-30T18:55:32;99529.41;;;-3.35;61.24
57086;BME280;42964;42.910;23.792;2024-01-30T19:00:34;99760.56;;;-2.00;61.17
57086;BME280;42964;42.910;23.792;2024-01-30T19:05:34;99760.19;;;-2.05;61.09
57086;BME280;42964;42.910;23.792;2024-01-30T19:10:34;99725.03;;;-2.31;61.08
57086;BME280;42964;42.910;23.792;2024-01-30T19:15:34;99757.94;;;-2.12;61.19
57086;BME280;42964;42.910;23.792;2024-01-30T19:20:33;99668.00;;;-2.76;61.08
57086;BME280;42964;42.910;23.792;2024-01-30T19:25:32;99664.84;;;-2.83;60.96
57086;BME280;42964;42.910;23.792;2024-01-30T19:30:31;99686.81;;;-2.84;63.21
57086;BME280;42964;42.910;23.792;2024-01-30T19:35:30;99721.00;;;-2.80;64.19
57086;BME280;42964;42.910;23.792;2024-01-30T19:40:29;99719.22;;;-2.81;64.36
57086;BME280;42964;42.910;23.792;2024-01-30T19:45:28;99757.06;;;-2.74;64.70
57086;BME280;42964;42.910;23.792;2024-01-30T19:50:27;99692.78;;;-3.14;64.59
57086;BME280;42964;42.910;23.792;2024-01-30T19:55:26;99763.16;;;-2.72;64.92
57086;BME280;42964;42.910;23.792;2024-01-30T20:00:25;99767.88;;;-2.77;64.93
57086;BME280;42964;42.910;23.792;2024-01-30T20:05:24;99745.41;;;-2.82;65.65
57086;BME280;42964;42.910;23.792;2024-01-30T20:10:23;99723.28;;;-2.94;65.32
57086;BME280;42964;42.910;23.792;2024-01-30T20:15:22;99749.59;;;-2.73;65.65
57086;BME280;42964;42.910;23.792;2024-01-30T20:20:21;99637.03;;;-3.43;65.62
57086;BME280;42964;42.910;23.792;2024-01-30T20:25:21;99762.00;;;-2.86;66.59
57086;BME280;42964;42.910;23.792;2024-01-30T20:30:20;99754.53;;;-2.84;66.05
57086;BME280;42964;42.910;23.792;2024-01-30T20:35:21;99723.50;;;-3.11;66.89
57086;BME280;42964;42.910;23.792;2024-01-30T20:40:20;99756.31;;;-2.94;66.59
57086;BME280;42964;42.910;23.792;2024-01-30T20:45:19;99749.03;;;-2.99;67.13
57086;BME280;42964;42.910;23.792;2024-01-30T20:50:18;99689.97;;;-3.38;66.91
57086;BME280;42964;42.910;23.792;2024-01-30T20:55:17;99711.69;;;-3.31;67.34
57086;BME280;42964;42.910;23.792;2024-01-30T21:00:16;99691.72;;;-3.47;67.56
57086;BME280;42964;42.910;23.792;2024-01-30T21:05:15;99700.50;;;-3.33;67.24
57086;BME280;42964;42.910;23.792;2024-01-30T21:10:17;99718.28;;;-3.23;67.54
57086;BME280;42964;42.910;23.792;2024-01-30T21:15:16;99723.00;;;-3.17;67.25
57086;BME280;42964;42.910;23.792;2024-01-30T21:20:16;99672.41;;;-3.55;67.76
57086;BME280;42964;42.910;23.792;2024-01-30T21:25:15;99730.56;;;-3.38;68.58
57086;BME280;42964;42.910;23.792;2024-01-30T21:30:14;99665.25;;;-3.80;69.00
57086;BME280;42964;42.910;23.792;2024-01-30T21:35:13;99735.34;;;-3.51;68.83
57086;BME280;42964;42.910;23.792;2024-01-30T21:40:12;99723.28;;;-3.53;69.69
57086;BME280;42964;42.910;23.792;2024-01-30T21:45:13;99730.66;;;-3.57;69.08
57086;BME280;42964;42.910;23.792;2024-01-30T21:50:12;99722.25;;;-3.56;69.33
57086;BME280;42964;42.910;23.792;2024-01-30T21:55:11;99725.94;;;-3.62;68.76
57086;BME280;42964;42.910;23.792;2024-01-30T22:00:10;99708.63;;;-3.77;69.50
57086;BME280;42964;42.910;23.792;2024-01-30T22:05:09;99706.00;;;-3.68;70.17
57086;BME280;42964;42.910;23.792;2024-01-30T22:10:09;99703.91;;;-3.82;70.23
57086;BME280;42964;42.910;23.792;2024-01-30T22:15:08;99695.13;;;-3.86;70.38
57086;BME280;42964;42.910;23.792;2024-01-30T22:20:07;99701.75;;;-3.88;70.92
57086;BME280;42964;42.910;23.792;2024-01-30T22:25:10;99706.75;;;-3.98;70.84
57086;BME280;42964;42.910;23.792;2024-01-30T22:30:10;99667.00;;;-4.18;71.00
57086;BME280;42964;42.910;23.792;2024-01-30T22:35:09;99686.91;;;-4.12;71.60
57086;BME280;42964;42.910;23.792;2024-01-30T22:40:10;99676.19;;;-4.29;71.04
57086;BME280;42964;42.910;23.792;2024-01-30T22:45:09;99664.50;;;-4.37;71.48
57086;BME280;42964;42.910;23.792;2024-01-30T22:50:08;99683.78;;;-4.29;70.38
57086;BME280;42964;42.910;23.792;2024-01-30T22:55:07;99690.50;;;-4.29;70.69
57086;BME280;42964;42.910;23.792;2024-01-30T23:00:07;99699.88;;;-4.28;72.21
57086;BME280;42964;42.910;23.792;2024-01-30T23:05:20;99646.75;;;-4.56;71.79
57086;BME280;42964;42.910;23.792;2024-01-30T23:10:19;99691.00;;;-4.33;71.37
57086;BME280;42964;42.910;23.792;2024-01-30T23:15:18;99686.41;;;-4.37;70.93
57086;BME280;42964;42.910;23.792;2024-01-30T23:20:17;99683.47;;;-4.42;71.41
57086;BME280;42964;42.910;23.792;2024-01-30T23:25:16;99665.94;;;-4.49;71.38
57086;BME280;42964;42.910;23.792;2024-01-30T23:30:15;99677.66;;;-4.41;72.29
57086;BME280;42964;42.910;23.792;2024-01-30T23:35:14;99538.50;;;-5.26;71.47
57086;BME280;42964;42.910;23.792;2024-01-30T23:40:13;99676.22;;;-4.48;72.30
57086;BME280;42964;42.910;23.792;2024-01-30T23:45:12;99609.97;;;-4.90;72.16
57086;BME280;42964;42.910;23.792;2024-01-30T23:50:11;99669.91;;;-4.62;73.55
57086;BME280;42964;42.910;23.792;2024-01-30T23:55:11;99648.97;;;-4.88;74.29
